Time;durP1;ratioP1;P1;durP2;ratioP2;P2;SDS_P1;SDS_P2;PMS_P1;PMS_P2;Temp;Humidity;BMP_temperature;BMP_pressure;BME280_temperature;BME280_humidity;BME280_pressure;Samples;Min_cycle;Max_cycle;Signal;HPM_P1;HPM_P2
2022/09/21 00:01:07;;;;;;;4.67;3.40;;;12.60;85.10;;;;;;5077981;28;20560;-68
2022/09/21 00:03:34;;;;;;;4.37;3.97;;;12.60;84.90;;;;;;5080734;28;20876;-68
2022/09/21 00:06:05;;;;;;;3.97;3.57;;;12.60;84.70;;;;;;5082209;28;20454;-69
2022/09/21 00:08:32;;;;;;;13.50;6.03;;;12.60;84.60;;;;;;5081620;28;20848;-68
2022/09/21 00:10:59;;;;;;;5.10;3.60;;;12.60;84.60;;;;;;5080954;28;20953;-68
2022/09/21 00:13:27;;;;;;;5.07;3.93;;;12.60;84.70;;;;;;5085037;28;20465;-69
2022/09/21 00:15:55;;;;;;;5.93;3.83;;;12.60;84.70;;;;;;5084951;28;20452;-69
2022/09/21 00:18:22;;;;;;;10.47;4.20;;;12.60;84.60;;;;;;5085324;28;20449;-69
2022/09/21 00:20:51;;;;;;;7.80;3.70;;;12.50;84.40;;;;;;5085816;28;20536;-69
2022/09/21 00:23:18;;;;;;;10.13;4.77;;;12.50;84.70;;;;;;5086339;28;20473;-69
2022/09/21 00:25:44;;;;;;;7.13;3.67;;;12.50;84.90;;;;;;5086138;28;20439;-68
2022/09/21 00:28:11;;;;;;;7.93;4.40;;;12.50;85.00;;;;;;5086367;28;20463;-68
2022/09/21 00:30:38;;;;;;;9.83;4.53;;;12.50;85.70;;;;;;5085923;28;20486;-68
2022/09/21 00:33:06;;;;;;;8.50;3.80;;;12.50;84.90;;;;;;5085619;28;20486;-68
2022/09/21 00:35:33;;;;;;;17.63;5.07;;;12.50;84.90;;;;;;5085560;28;20907;-69
2022/09/21 00:38:01;;;;;;;16.57;5.27;;;12.50;84.90;;;;;;5085544;28;20443;-69
2022/09/21 00:40:28;;;;;;;10.10;4.30;;;12.50;85.10;;;;;;5085797;28;20452;-69
2022/09/21 00:43:10;;;;;;;9.13;3.70;;;12.50;85.10;;;;;;5085054;28;20489;-69
2022/09/21 00:45:37;;;;;;;12.67;4.13;;;12.40;84.90;;;;;;5085026;28;20431;-69
2022/09/21 00:48:05;;;;;;;18.80;4.83;;;12.40;85.00;;;;;;5085266;28;20455;-68
2022/09/21 00:50:33;;;;;;;14.73;4.33;;;12.40;85.00;;;;;;5085603;28;20447;-68
2022/09/21 00:53:00;;;;;;;10.13;4.67;;;12.40;85.00;;;;;;5085096;28;20490;-68
2022/09/21 00:55:32;;;;;;;10.70;3.80;;;12.40;84.90;;;;;;5085681;28;20467;-68
2022/09/21 00:58:03;;;;;;;10.40;4.33;;;12.30;84.60;;;;;;5086216;28;20442;-68
2022/09/21 01:00:30;;;;;;;12.57;4.87;;;12.30;84.60;;;;;;5085463;28;20448;-68
2022/09/21 01:03:00;;;;;;;10.73;5.30;;;12.30;84.60;;;;;;5085840;28;20495;-68
2022/09/21 01:05:28;;;;;;;13.80;4.50;;;12.30;84.50;;;;;;5085444;28;20452;-69
2022/09/21 01:07:59;;;;;;;15.90;4.07;;;12.30;84.30;;;;;;5084644;28;20457;-69
2022/09/21 01:10:26;;;;;;;10.17;3.73;;;12.30;84.30;;;;;;5085411;28;20490;-68
2022/09/21 01:13:05;;;;;;;9.93;4.30;;;12.30;84.30;;;;;;5084725;28;20537;-68
2022/09/21 01:15:40;;;;;;;9.70;3.90;;;12.20;84.20;;;;;;5085544;28;20442;-69
2022/09/21 01:18:13;;;;;;;12.40;4.60;;;12.20;84.20;;;;;;5085684;28;20444;-69
2022/09/21 01:21:14;;;;;;;7.67;4.20;;;12.20;84.10;;;;;;5085417;28;20434;-69
2022/09/21 01:24:04;;;;;;;13.90;4.90;;;12.10;84.10;;;;;;5084267;28;20508;-69
2022/09/21 01:26:47;;;;;;;11.10;4.50;;;12.10;84.20;;;;;;5085130;28;20943;-69
2022/09/21 01:29:20;;;;;;;9.93;4.33;;;12.00;84.10;;;;;;5080076;28;20427;-69
2022/09/21 01:31:52;;;;;;;10.80;4.10;;;12.00;84.40;;;;;;5084936;28;20420;-68
2022/09/21 01:34:28;;;;;;;9.40;4.37;;;11.90;84.00;;;;;;5085512;28;20472;-68
2022/09/21 01:36:58;;;;;;;8.43;4.40;;;12.00;93.50;;;;;;5086257;28;20436;-68
2022/09/21 01:39:27;;;;;;;10.83;3.33;;;11.90;87.20;;;;;;5086120;28;20444;-68
2022/09/21 01:41:56;;;;;;;10.83;4.40;;;11.90;85.00;;;;;;5087332;28;20472;-68
2022/09/21 01:44:29;;;;;;;10.40;4.53;;;11.90;85.00;;;;;;5086168;28;20548;-68
2022/09/21 01:46:59;;;;;;;9.70;4.03;;;11.90;85.00;;;;;;5086951;28;20447;-68
2022/09/21 01:49:29;;;;;;;12.93;5.13;;;11.90;85.00;;;;;;5086956;28;20560;-69
2022/09/21 01:52:03;;;;;;;8.30;3.47;;;11.80;84.80;;;;;;5086368;28;20437;-69
2022/09/21 01:54:37;;;;;;;11.03;3.53;;;11.80;84.80;;;;;;5087028;28;20487;-69
2022/09/21 01:57:08;;;;;;;8.63;3.73;;;11.80;84.80;;;;;;5086669;28;21060;-68
2022/09/21 01:59:47;;;;;;;10.00;3.90;;;11.80;84.90;;;;;;5085372;28;20907;-68
2022/09/21 02:02:19;;;;;;;8.63;4.50;;;11.80;84.90;;;;;;5085589;28;20479;-69
2022/09/21 02:04:45;;;;;;;8.90;4.23;;;11.80;84.90;;;;;;5087210;28;20431;-69
2022/09/21 02:07:12;;;;;;;8.03;3.87;;;11.70;84.30;;;;;;5087410;28;20450;-68
2022/09/21 02:09:40;;;;;;;7.07;4.20;;;;;;;;;;5082206;28;20855;-67
2022/09/21 02:12:06;;;;;;;9.83;3.93;;;11.60;83.80;;;;;;5082959;28;20456;-68
2022/09/21 02:14:36;;;;;;;10.77;3.97;;;11.50;84.90;;;;;;5087013;28;20455;-68
2022/09/21 02:17:19;;;;;;;11.83;4.80;;;11.50;85.20;;;;;;5087156;28;20504;-69
2022/09/21 02:19:53;;;;;;;10.60;4.90;;;11.50;85.40;;;;;;5086261;28;20438;-68
2022/09/21 02:22:30;;;;;;;12.40;4.33;;;11.50;85.60;;;;;;5086983;28;20210;-68
2022/09/21 02:25:05;;;;;;;8.47;3.77;;;11.50;85.50;;;;;;5087107;28;20446;-68
2022/09/21 02:27:38;;;;;;;13.23;4.47;;;11.50;86.00;;;;;;5087309;28;20917;-68
2022/09/21 02:30:08;;;;;;;13.57;4.90;;;11.50;86.10;;;;;;5087012;28;20430;-68
2022/09/21 02:32:48;;;;;;;14.60;5.33;;;11.50;86.00;;;;;;5086204;28;20463;-68
2022/09/21 02:35:25;;;;;;;9.93;4.27;;;11.50;85.80;;;;;;5085608;28;20445;-68
2022/09/21 02:37:56;;;;;;;13.67;4.67;;;11.50;85.80;;;;;;5086903;28;20428;-68
2022/09/21 02:40:29;;;;;;;11.77;4.00;;;11.40;85.70;;;;;;5086521;28;20805;-68
2022/09/21 02:43:00;;;;;;;14.00;4.90;;;11.40;85.80;;;;;;5086138;28;20491;-68
2022/09/21 02:45:30;;;;;;;12.00;5.17;;;11.40;85.80;;;;;;5086739;28;20439;-68
2022/09/21 02:48:02;;;;;;;11.10;4.97;;;11.40;86.60;;;;;;5086260;28;20474;-68
2022/09/21 02:50:33;;;;;;;12.00;5.37;;;11.40;85.70;;;;;;5086910;28;20777;-68
2022/09/21 02:53:04;;;;;;;15.67;5.70;;;11.40;85.60;;;;;;5086942;28;20845;-68
2022/09/21 02:55:32;;;;;;;14.33;4.93;;;11.40;85.70;;;;;;5086161;28;20462;-68
2022/09/21 02:58:01;;;;;;;13.20;5.63;;;11.30;85.50;;;;;;5086733;28;20467;-67
2022/09/21 03:00:28;;;;;;;18.50;5.53;;;11.40;85.60;;;;;;5086724;28;20452;-67
2022/09/21 03:02:55;;;;;;;9.43;4.97;;;11.30;85.60;;;;;;5086881;28;20502;-67
2022/09/21 03:05:23;;;;;;;10.33;4.37;;;11.30;85.80;;;;;;5085922;28;20450;-67
2022/09/21 03:07:50;;;;;;;10.17;5.40;;;11.30;86.00;;;;;;5086345;28;20443;-68
2022/09/21 03:10:17;;;;;;;18.60;4.53;;;11.30;86.00;;;;;;5086293;28;20432;-68
2022/09/21 03:12:45;;;;;;;9.90;4.77;;;11.30;86.00;;;;;;5086832;28;20462;-68
2022/09/21 03:15:15;;;;;;;18.83;4.63;;;11.30;85.90;;;;;;5087036;28;20450;-68
2022/09/21 03:17:42;;;;;;;17.97;5.10;;;11.30;85.80;;;;;;5086168;28;20539;-68
2022/09/21 03:20:09;;;;;;;17.90;4.73;;;11.30;85.70;;;;;;5086330;28;20439;-67
2022/09/21 03:22:38;;;;;;;18.90;6.10;;;11.30;85.50;;;;;;5085444;28;20500;-67
2022/09/21 03:25:06;;;;;;;13.33;5.30;;;11.20;85.30;;;;;;5084852;28;20949;-68
2022/09/21 03:27:33;;;;;;;13.20;4.80;;;11.20;85.70;;;;;;5085801;28;20480;-68
2022/09/21 03:30:00;;;;;;;16.90;5.13;;;11.10;85.10;;;;;;5085877;28;20454;-68
2022/09/21 03:32:26;;;;;;;8.43;4.67;;;11.00;85.30;;;;;;5085684;28;20466;-68
2022/09/21 03:34:53;;;;;;;14.07;4.57;;;10.90;86.10;;;;;;5085077;28;20442;-68
2022/09/21 03:37:20;;;;;;;9.03;4.37;;;10.90;86.80;;;;;;5085736;28;20475;-68
2022/09/21 03:39:48;;;;;;;9.07;4.50;;;10.80;87.10;;;;;;5084539;28;20435;-67
2022/09/21 03:42:14;;;;;;;15.57;4.00;;;10.80;87.10;;;;;;5084989;28;20487;-67
2022/09/21 03:44:43;;;;;;;10.97;5.20;;;10.80;87.10;;;;;;5084537;28;20453;-67
2022/09/21 03:47:10;;;;;;;15.60;4.90;;;10.80;86.90;;;;;;5084059;28;20537;-67
2022/09/21 03:49:37;;;;;;;23.10;5.63;;;10.90;86.80;;;;;;5085321;28;20912;-68
2022/09/21 03:52:04;;;;;;;10.77;4.80;;;10.90;86.60;;;;;;5084758;28;20486;-67
2022/09/21 03:54:31;;;;;;;8.93;5.17;;;10.90;86.40;;;;;;5084556;28;20455;-67
2022/09/21 03:57:01;;;;;;;14.83;5.23;;;10.80;86.00;;;;;;5084263;28;20461;-68
2022/09/21 03:59:28;;;;;;;13.80;5.40;;;10.90;86.10;;;;;;5085014;28;20458;-68
2022/09/21 04:01:55;;;;;;;20.70;5.17;;;10.80;86.00;;;;;;5084286;28;20833;-67
2022/09/21 04:04:21;;;;;;;6.57;4.13;;;10.80;86.00;;;;;;5084909;28;20465;-68
2022/09/21 04:06:48;;;;;;;17.80;4.57;;;10.80;86.00;;;;;;5084891;28;20438;-68
2022/09/21 04:09:15;;;;;;;13.87;4.77;;;10.80;86.00;;;;;;5085003;28;20452;-68
2022/09/21 04:11:42;;;;;;;17.00;4.30;;;10.80;85.90;;;;;;5085462;28;20445;-68
2022/09/21 04:14:11;;;;;;;18.27;4.43;;;10.80;85.70;;;;;;5085008;28;20494;-68
2022/09/21 04:16:38;;;;;;;27.50;5.57;;;10.70;85.80;;;;;;5082288;28;20887;-68
2022/09/21 04:19:05;;;;;;;10.83;5.43;;;10.70;85.80;;;;;;5080488;28;20832;-68
2022/09/21 04:21:32;;;;;;;14.53;5.47;;;10.70;86.10;;;;;;5077412;28;20465;-68
2022/09/21 04:24:00;;;;;;;20.00;5.30;;;10.70;86.20;;;;;;5084842;28;20494;-69
2022/09/21 04:26:29;;;;;;;13.90;4.80;;;10.70;86.20;;;;;;5082389;28;20429;-68
2022/09/21 04:28:57;;;;;;;17.93;5.50;;;10.70;86.10;;;;;;5076556;28;20443;-67
2022/09/21 04:31:26;;;;;;;11.87;4.90;;;10.70;86.10;;;;;;5078264;28;20463;-67
2022/09/21 04:33:54;;;;;;;15.23;4.80;;;10.70;86.10;;;;;;5081655;28;20464;-68
2022/09/21 04:36:22;;;;;;;14.90;4.60;;;10.70;86.20;;;;;;5082267;28;20445;-70
2022/09/21 04:38:49;;;;;;;15.00;4.50;;;10.70;86.20;;;;;;5082393;28;20460;-68
2022/09/21 04:41:16;;;;;;;28.27;6.03;;;10.60;86.90;;;;;;5080944;28;20448;-68
2022/09/21 04:43:44;;;;;;;25.33;5.90;;;10.60;86.10;;;;;;5082869;28;20502;-68
2022/09/21 04:46:13;;;;;;;14.57;4.53;;;10.60;86.00;;;;;;5083467;28;20450;-68
2022/09/21 04:48:42;;;;;;;10.67;4.50;;;10.60;86.00;;;;;;5084276;28;20449;-68
2022/09/21 04:51:09;;;;;;;15.33;5.30;;;10.60;86.10;;;;;;5083985;28;20445;-67
2022/09/21 04:53:38;;;;;;;11.63;4.50;;;10.60;86.10;;;;;;5084147;28;20461;-67
2022/09/21 04:56:06;;;;;;;13.23;4.60;;;10.60;86.20;;;;;;5084770;28;21038;-68
2022/09/21 04:58:33;;;;;;;10.40;4.90;;;10.60;86.10;;;;;;5084789;28;20836;-67
2022/09/21 05:01:01;;;;;;;12.90;4.70;;;10.60;86.10;;;;;;5087968;28;20442;-68
2022/09/21 05:03:27;;;;;;;11.43;5.10;;;10.50;86.00;;;;;;5088311;28;20601;-68
2022/09/21 05:05:57;;;;;;;13.53;4.87;;;10.50;86.00;;;;;;5086952;28;20450;-68
2022/09/21 05:11:06;;;;;;;10.17;4.97;;;10.50;85.90;;;;;;5087992;28;20430;-67
2022/09/21 05:13:32;;;;;;;21.10;5.50;;;10.50;85.90;;;;;;5087270;28;20465;-68
2022/09/21 05:15:59;;;;;;;18.23;5.80;;;10.50;86.00;;;;;;5087293;28;20446;-68
2022/09/21 05:18:26;;;;;;;13.53;5.73;;;10.50;86.00;;;;;;5088644;28;20446;-68
2022/09/21 05:20:55;;;;;;;12.83;5.57;;;10.50;86.20;;;;;;5089016;28;20448;-68
2022/09/21 05:23:22;;;;;;;15.93;5.40;;;10.50;86.40;;;;;;5088272;28;20501;-68
2022/09/21 05:25:49;;;;;;;16.90;4.90;;;10.50;86.50;;;;;;5088410;28;20453;-67
2022/09/21 05:28:16;;;;;;;13.77;5.70;;;10.50;86.50;;;;;;5088897;28;20976;-67
2022/09/21 05:30:44;;;;;;;11.50;4.63;;;10.40;86.30;;;;;;5088508;28;20450;-67
2022/09/21 05:33:15;;;;;;;21.20;5.67;;;10.40;86.40;;;;;;5087974;28;20468;-67
2022/09/21 05:35:47;;;;;;;15.80;5.93;;;10.40;86.60;;;;;;5088669;28;20435;-67
2022/09/21 05:38:18;;;;;;;13.77;5.40;;;10.40;86.70;;;;;;5089524;28;20431;-68
2022/09/21 05:40:46;;;;;;;15.33;4.60;;;10.40;86.80;;;;;;5089199;28;20438;-68
2022/09/21 05:43:13;;;;;;;9.93;4.30;;;10.40;86.80;;;;;;5089328;28;20926;-67
2022/09/21 05:45:45;;;;;;;24.73;7.80;;;10.40;87.00;;;;;;5089761;28;20468;-67
2022/09/21 05:48:17;;;;;;;15.03;4.90;;;10.40;87.10;;;;;;5089297;28;20930;-67
2022/09/21 05:50:52;;;;;;;17.00;5.33;;;10.40;87.10;;;;;;5089479;28;20466;-67
2022/09/21 05:53:40;;;;;;;13.10;5.90;;;10.50;87.30;;;;;;5089215;28;20469;-67
2022/09/21 05:56:16;;;;;;;19.60;6.40;;;10.50;87.40;;;;;;5089943;28;20449;-67
2022/09/21 05:58:53;;;;;;;18.73;5.97;;;10.50;87.50;;;;;;5090228;28;20438;-67
2022/09/21 06:01:34;;;;;;;12.47;4.77;;;10.40;87.70;;;;;;5089728;28;20442;-67
2022/09/21 06:04:02;;;;;;;18.57;5.53;;;10.50;88.30;;;;;;5088760;28;20495;-68
2022/09/21 06:06:28;;;;;;;20.07;5.40;;;10.50;88.60;;;;;;5089823;28;20451;-68
2022/09/21 06:08:56;;;;;;;19.50;4.80;;;10.50;88.80;;;;;;5089273;28;20971;-67
2022/09/21 06:11:23;;;;;;;12.23;5.23;;;10.50;89.00;;;;;;5089418;28;20452;-67
2022/09/21 06:13:50;;;;;;;14.33;5.47;;;10.60;89.40;;;;;;5088720;28;20466;-67
2022/09/21 06:16:17;;;;;;;11.37;4.97;;;10.60;89.60;;;;;;5088655;28;20444;-67
2022/09/21 06:18:43;;;;;;;7.50;4.67;;;10.60;89.80;;;;;;5088995;28;20438;-67
2022/09/21 06:21:10;;;;;;;14.87;6.03;;;10.60;90.00;;;;;;5089278;28;20445;-67
2022/09/21 06:23:37;;;;;;;14.23;5.50;;;10.60;90.00;;;;;;5089222;28;20486;-68
2022/09/21 06:26:05;;;;;;;14.73;4.23;;;10.70;90.10;;;;;;5089865;28;20458;-68
2022/09/21 06:28:32;;;;;;;12.73;4.67;;;10.70;90.20;;;;;;5089227;28;20445;-68
2022/09/21 06:30:59;;;;;;;19.03;4.80;;;10.70;90.60;;;;;;5089239;28;20452;-68
2022/09/21 06:33:26;;;;;;;12.47;5.23;;;10.80;90.30;;;;;;5088833;28;20576;-68
2022/09/21 06:35:54;;;;;;;15.03;6.03;;;10.80;90.40;;;;;;5089680;28;20454;-68
2022/09/21 06:38:21;;;;;;;15.07;5.47;;;10.80;90.40;;;;;;5084871;28;20447;-67
2022/09/21 06:40:48;;;;;;;18.97;6.70;;;10.80;90.40;;;;;;5085899;28;20474;-67
2022/09/21 06:43:16;;;;;;;13.33;5.53;;;10.90;90.60;;;;;;5088643;28;20494;-67
2022/09/21 06:45:44;;;;;;;11.87;6.07;;;11.00;90.80;;;;;;5088792;28;20446;-67
2022/09/21 06:48:10;;;;;;;16.03;7.60;;;11.00;90.90;;;;;;5088679;28;20438;-67
2022/09/21 06:50:37;;;;;;;14.40;6.77;;;11.00;91.10;;;;;;5088885;28;20439;-67
2022/09/21 06:53:04;;;;;;;16.23;7.00;;;11.20;91.30;;;;;;5088624;28;20520;-67
2022/09/21 06:55:31;;;;;;;19.47;8.20;;;11.20;91.70;;;;;;5088785;28;20466;-68
2022/09/21 06:58:01;;;;;;;14.33;9.60;;;11.30;91.50;;;;;;5089414;28;20439;-68
2022/09/21 07:00:30;;;;;;;18.83;9.40;;;11.40;91.80;;;;;;5089299;28;20525;-68
2022/09/21 07:02:57;;;;;;;12.80;8.80;;;11.50;92.30;;;;;;5088519;28;20502;-68
2022/09/21 07:05:24;;;;;;;12.37;7.63;;;11.60;92.70;;;;;;5087584;28;20447;-68
2022/09/21 07:07:51;;;;;;;12.77;8.97;;;11.80;93.00;;;;;;5087351;28;20452;-67
2022/09/21 07:10:17;;;;;;;11.70;8.40;;;11.90;93.20;;;;;;5088955;28;20459;-68
2022/09/21 07:12:44;;;;;;;11.90;8.90;;;12.10;93.40;;;;;;5090927;28;20467;-68
2022/09/21 07:15:12;;;;;;;12.30;10.07;;;12.30;93.40;;;;;;5091381;28;20448;-68
2022/09/21 07:17:41;;;;;;;16.27;10.73;;;12.40;93.30;;;;;;5090705;28;20441;-68
2022/09/21 07:20:09;;;;;;;13.57;11.00;;;12.60;93.60;;;;;;5089911;28;20443;-68
2022/09/21 07:22:36;;;;;;;19.70;12.13;;;12.70;93.70;;;;;;5089351;28;20470;-68
2022/09/21 07:25:04;;;;;;;15.97;11.97;;;12.80;93.80;;;;;;5088650;28;20515;-68
2022/09/21 07:27:32;;;;;;;17.43;11.50;;;12.90;93.90;;;;;;5090190;28;20452;-67
2022/09/21 07:29:59;;;;;;;18.60;13.40;;;13.00;94.00;;;;;;5088907;28;20471;-67
2022/09/21 07:32:26;;;;;;;15.93;11.93;;;13.10;94.10;;;;;;5088159;28;20454;-68
2022/09/21 07:34:55;;;;;;;20.87;12.60;;;13.10;93.80;;;;;;5087967;28;20447;-68
2022/09/21 07:37:23;;;;;;;23.13;12.00;;;13.30;93.80;;;;;;5090427;28;20426;-67
2022/09/21 07:39:50;;;;;;;20.17;11.60;;;13.30;93.90;;;;;;5097332;28;20452;-67
2022/09/21 07:42:19;;;;;;;16.97;10.53;;;13.40;93.80;;;;;;5084421;28;21026;-67
2022/09/21 07:44:46;;;;;;;16.23;11.10;;;13.50;93.50;;;;;;5085862;28;20486;-67
2022/09/21 07:47:14;;;;;;;17.07;12.37;;;13.60;93.20;;;;;;5084359;28;20460;-68
2022/09/21 07:49:41;;;;;;;10.70;8.40;;;13.80;92.80;;;;;;5085471;28;20436;-68
2022/09/21 07:52:11;;;;;;;10.40;9.20;;;13.90;92.60;;;;;;5084198;28;20455;-68
2022/09/21 07:54:38;;;;;;;16.40;10.70;;;14.10;92.40;;;;;;5085133;28;20439;-67
2022/09/21 07:59:49;;;;;;;13.10;11.77;;;14.50;91.70;;;;;;5084507;28;20408;-67
2022/09/21 08:02:16;;;;;;;14.50;11.47;;;14.70;91.50;;;;;;5085044;28;20458;-67
2022/09/21 08:04:42;;;;;;;17.13;12.40;;;14.80;91.40;;;;;;5085496;28;20506;-67
2022/09/21 08:07:11;;;;;;;13.33;11.90;;;15.00;91.10;;;;;;5084938;28;20827;-68
2022/09/21 08:09:38;;;;;;;15.83;11.23;;;15.30;90.90;;;;;;5082180;28;20455;-67
2022/09/21 08:12:05;;;;;;;12.53;10.27;;;;;;;;;;5078736;28;20451;-68
2022/09/21 08:14:32;;;;;;;12.93;10.10;;;15.70;89.10;;;;;;5084736;28;20452;-68
2022/09/21 08:16:59;;;;;;;10.30;8.43;;;15.90;88.00;;;;;;5084766;28;20465;-68
2022/09/21 08:19:26;;;;;;;14.10;11.03;;;16.10;86.40;;;;;;5084961;28;20448;-68
2022/09/21 08:21:53;;;;;;;16.77;13.13;;;16.30;86.10;;;;;;5085410;28;20452;-68
2022/09/21 08:24:21;;;;;;;13.30;10.90;;;16.40;85.10;;;;;;5084708;28;20484;-68
2022/09/21 08:26:51;;;;;;;14.77;10.60;;;16.50;84.90;;;;;;5083058;28;20456;-68
2022/09/21 08:29:17;;;;;;;13.20;11.00;;;16.70;83.40;;;;;;5082103;28;20484;-68
2022/09/21 08:31:45;;;;;;;14.20;12.10;;;16.70;82.60;;;;;;5082071;28;20452;-68
2022/09/21 08:34:12;;;;;;;13.27;11.90;;;16.80;82.70;;;;;;5085919;28;20887;-68
2022/09/21 08:36:39;;;;;;;14.10;11.70;;;16.80;82.60;;;;;;5083748;28;20456;-68
2022/09/21 08:39:07;;;;;;;13.17;11.60;;;16.90;82.60;;;;;;5085059;28;20445;-69
2022/09/21 08:42:00;;;;;;;9.60;8.70;;;16.90;82.50;;;;;;5086484;28;20449;-69
2022/09/21 08:44:32;;;;;;;12.50;11.20;;;17.00;81.80;;;;;;5086156;28;20491;-69
2022/09/21 08:47:05;;;;;;;11.10;8.83;;;17.10;81.20;;;;;;5086806;28;20456;-69
2022/09/21 08:49:35;;;;;;;14.77;10.83;;;17.20;80.90;;;;;;5087383;28;20444;-68
2022/09/21 08:52:05;;;;;;;13.40;10.30;;;17.30;80.70;;;;;;5086280;28;20451;-68
2022/09/21 08:54:38;;;;;;;12.80;11.43;;;17.30;80.50;;;;;;5086484;28;20429;-69
2022/09/21 08:57:11;;;;;;;13.40;11.70;;;17.40;80.50;;;;;;5086796;28;20847;-69
2022/09/21 08:59:41;;;;;;;15.67;12.40;;;17.50;80.40;;;;;;5086553;28;20429;-68
2022/09/21 09:02:33;;;;;;;14.20;12.80;;;17.50;79.20;;;;;;5086191;28;20459;-68
2022/09/21 09:05:07;;;;;;;12.57;11.30;;;17.30;79.60;;;;;;5085736;28;20484;-69
2022/09/21 09:07:59;;;;;;;12.77;9.63;;;17.30;80.90;;;;;;5085380;28;20915;-69
2022/09/21 09:10:38;;;;;;;9.27;8.40;;;17.30;81.50;;;;;;5084673;28;20471;-69
2022/09/21 09:13:20;;;;;;;12.53;9.67;;;17.40;81.40;;;;;;5084801;28;20476;-69
2022/09/21 09:16:05;;;;;;;8.73;7.83;;;17.60;81.80;;;;;;5079612;28;20433;-70
2022/09/21 09:18:39;;;;;;;8.93;8.07;;;;;;;;;;5080999;28;20433;-69
2022/09/21 09:21:12;;;;;;;15.13;9.20;;;18.00;79.60;;;;;;5083072;28;20451;-69
2022/09/21 09:23:46;;;;;;;11.73;10.53;;;18.20;78.90;;;;;;5082549;28;20496;-69
2022/09/21 09:26:20;;;;;;;13.53;11.63;;;18.30;77.20;;;;;;5082512;28;20452;-69
2022/09/21 09:28:54;;;;;;;13.30;11.60;;;18.30;76.70;;;;;;5082065;28;20464;-69
2022/09/21 09:31:25;;;;;;;13.57;12.17;;;18.30;76.10;;;;;;5082483;28;20441;-69
2022/09/21 09:33:56;;;;;;;21.53;11.00;;;18.30;75.70;;;;;;5081928;28;20465;-69
2022/09/21 09:36:27;;;;;;;12.53;10.90;;;18.40;76.30;;;;;;5081270;28;20429;-69
2022/09/21 09:38:57;;;;;;;13.70;11.90;;;18.60;75.30;;;;;;5081362;28;20434;-69
2022/09/21 09:41:42;;;;;;;11.43;10.10;;;18.80;74.40;;;;;;5081384;28;20436;-70
2022/09/21 09:44:30;;;;;;;19.53;11.13;;;19.00;74.20;;;;;;5080759;28;20998;-70
2022/09/21 09:47:03;;;;;;;14.37;10.90;;;19.10;71.40;;;;;;5081499;28;20433;-70
2022/09/21 09:49:40;;;;;;;13.33;11.83;;;19.20;71.20;;;;;;5080892;28;20516;-70
2022/09/21 09:52:10;;;;;;;12.90;9.67;;;19.30;70.60;;;;;;5081573;28;20444;-70
2022/09/21 09:54:37;;;;;;;13.93;10.60;;;19.40;69.90;;;;;;5081230;28;20425;-70
2022/09/21 09:57:06;;;;;;;11.53;10.20;;;19.50;70.00;;;;;;5080699;28;20437;-70
2022/09/21 09:59:39;;;;;;;12.40;11.17;;;19.50;69.50;;;;;;5081062;28;20533;-71
2022/09/21 10:02:18;;;;;;;13.13;10.50;;;19.50;68.40;;;;;;5080239;28;20444;-70
2022/09/21 10:05:02;;;;;;;10.97;8.80;;;19.50;68.70;;;;;;5081116;28;20825;-70
2022/09/21 10:07:37;;;;;;;17.13;10.93;;;19.60;68.40;;;;;;5080533;28;20432;-70
2022/09/21 10:10:23;;;;;;;12.53;9.70;;;19.70;67.80;;;;;;5081006;28;20433;-70
2022/09/21 10:12:51;;;;;;;13.43;8.13;;;19.90;67.50;;;;;;5080231;28;20469;-70
2022/09/21 10:15:20;;;;;;;16.10;9.73;;;20.30;68.00;;;;;;5080473;28;20448;-70
2022/09/21 10:17:47;;;;;;;9.10;8.20;;;20.90;65.40;;;;;;5078847;28;20452;-70
2022/09/21 10:20:18;;;;;;;8.70;7.17;;;21.20;62.00;;;;;;5077622;28;20810;-70
2022/09/21 10:22:48;;;;;;;12.10;8.23;;;21.40;60.80;;;;;;5077116;28;20508;-71
2022/09/21 10:25:17;;;;;;;11.00;7.80;;;21.60;60.30;;;;;;5076526;28;20485;-71
2022/09/21 10:27:47;;;;;;;9.87;7.00;;;21.90;60.80;;;;;;5076915;28;20453;-71
2022/09/21 10:30:33;;;;;;;8.03;7.27;;;22.40;58.70;;;;;;5076904;28;20453;-71
2022/09/21 10:33:00;;;;;;;9.03;7.30;;;22.80;57.00;;;;;;5075876;28;20883;-71
2022/09/21 10:35:28;;;;;;;14.07;5.70;;;23.40;55.50;;;;;;5077280;28;20457;-71
2022/09/21 10:38:12;;;;;;;6.60;5.27;;;24.10;53.80;;;;;;5076809;28;20453;-70
2022/09/21 10:40:39;;;;;;;11.00;7.47;;;25.10;52.20;;;;;;5076257;28;20456;-71
2022/09/21 10:43:20;;;;;;;11.80;8.43;;;26.00;47.20;;;;;;5077240;28;20841;-71
2022/09/21 10:45:54;;;;;;;9.07;6.73;;;26.80;44.00;;;;;;5076784;28;20835;-71
2022/09/21 10:48:23;;;;;;;7.47;4.67;;;27.30;41.60;;;;;;5076432;28;20486;-71
2022/09/21 10:50:51;;;;;;;5.43;4.43;;;27.70;39.80;;;;;;5076720;28;20437;-71
2022/09/21 10:53:24;;;;;;;4.90;4.40;;;28.20;39.80;;;;;;5076070;28;20473;-71
2022/09/21 10:55:58;;;;;;;8.87;3.87;;;28.80;38.30;;;;;;5076280;28;20453;-71
2022/09/21 10:58:25;;;;;;;8.80;4.87;;;29.30;38.00;;;;;;5075256;28;20440;-71
2022/09/21 11:00:55;;;;;;;5.60;4.73;;;29.80;36.60;;;;;;5075934;28;20441;-71
2022/09/21 11:03:40;;;;;;;4.57;3.67;;;30.30;33.60;;;;;;5077114;28;20472;-71
2022/09/21 11:06:14;;;;;;;8.70;3.97;;;30.80;32.40;;;;;;5078857;28;20483;-71
2022/09/21 11:08:48;;;;;;;5.90;2.90;;;31.30;32.20;;;;;;5078820;28;20432;-71
2022/09/21 11:11:36;;;;;;;3.47;3.17;;;31.80;32.20;;;;;;5078995;28;20448;-71
2022/09/21 11:14:11;;;;;;;5.80;3.20;;;32.40;30.40;;;;;;5079148;28;20472;-72
2022/09/21 11:16:44;;;;;;;7.43;3.43;;;32.90;30.30;;;;;;5078486;28;20463;-71
2022/09/21 11:19:22;;;;;;;4.80;3.50;;;33.30;29.40;;;;;;5077500;28;20440;-71
2022/09/21 11:21:55;;;;;;;4.77;3.50;;;33.70;27.90;;;;;;5077166;28;20440;-71
2022/09/21 11:24:28;;;;;;;7.27;4.00;;;34.00;27.20;;;;;;5077184;28;20494;-71
2022/09/21 11:27:02;;;;;;;7.20;4.50;;;34.40;26.50;;;;;;5078977;28;20444;-71
2022/09/21 11:29:38;;;;;;;5.57;3.93;;;34.60;25.40;;;;;;5078822;28;20432;-72
2022/09/21 11:32:36;;;;;;;4.43;3.50;;;34.80;25.70;;;;;;5078643;28;20440;-70
2022/09/21 11:35:34;;;;;;;3.10;2.90;;;35.00;23.70;;;;;;5071743;28;20198;-70
2022/09/21 11:38:10;;;;;;;4.60;2.53;;;35.00;23.20;;;;;;5061153;28;20455;-70
2022/09/21 11:40:52;;;;;;;5.70;2.90;;;35.00;24.20;;;;;;5076904;28;20428;-70
2022/09/21 11:43:33;;;;;;;2.83;2.17;;;35.30;24.10;;;;;;5075802;28;20822;-70
2022/09/21 11:46:10;;;;;;;4.37;2.50;;;35.80;23.90;;;;;;5076512;28;20561;-70
2022/09/21 11:48:53;;;;;;;3.57;2.37;;;36.30;23.70;;;;;;5075502;28;20186;-70
2022/09/21 11:51:43;;;;;;;3.33;2.30;;;36.80;23.50;;;;;;5075366;28;20220;-70
2022/09/21 11:54:38;;;;;;;11.93;3.25;;;37.30;23.20;;;;;;5075797;28;20238;-70
2022/09/21 11:57:15;;;;;;;3.72;2.72;;;37.80;21.30;;;;;;5075236;28;20197;-71
2022/09/21 11:59:59;;;;;;;7.90;3.42;;;38.20;20.40;;;;;;5074766;28;20612;-71
2022/09/21 12:02:43;;;;;;;4.60;2.58;;;38.30;20.00;;;;;;5075584;28;20232;-71
2022/09/21 12:05:21;;;;;;;4.80;2.97;;;38.50;21.00;;;;;;5075228;28;20221;-71
2022/09/21 12:08:33;;;;;;;3.42;2.65;;;38.70;21.10;;;;;;5075246;28;20190;-71
2022/09/21 12:11:11;;;;;;;3.78;2.17;;;39.00;20.10;;;;;;4993201;28;20282;-71
2022/09/21 12:13:48;;;;;;;5.70;2.58;;;39.40;20.00;;;;;;5062139;28;20225;-71
2022/09/21 12:16:22;;;;;;;2.83;2.05;;;39.70;19.80;;;;;;5075149;28;20236;-71
2022/09/21 12:18:55;;;;;;;5.63;2.30;;;40.10;19.30;;;;;;5076274;28;20284;-70
2022/09/21 12:21:27;;;;;;;4.25;2.15;;;40.40;18.40;;;;;;5075531;28;20182;-71
2022/09/21 12:23:56;;;;;;;4.18;1.92;;;40.70;17.80;;;;;;5075550;28;20230;-70
2022/09/21 12:26:27;;;;;;;3.50;2.22;;;41.10;18.30;;;;;;5075356;28;20263;-71
2022/09/21 12:28:59;;;;;;;2.97;2.00;;;41.30;18.10;;;;;;5075334;28;20199;-70
2022/09/21 12:31:31;;;;;;;2.80;1.73;;;41.70;18.20;;;;;;5075546;28;20187;-70
2022/09/21 12:34:03;;;;;;;4.85;1.88;;;42.10;18.10;;;;;;5075400;28;20225;-70
2022/09/21 12:36:36;;;;;;;3.13;1.90;;;42.50;16.80;;;;;;5075346;28;20182;-73
2022/09/21 12:39:10;;;;;;;4.82;2.40;;;42.80;16.20;;;;;;5075913;28;20182;-70
2022/09/21 12:41:43;;;;;;;5.03;2.53;;;43.00;15.60;;;;;;5075296;28;20685;-70
2022/09/21 12:44:22;;;;;;;3.78;1.80;;;42.90;15.80;;;;;;5075492;28;20272;-70
2022/09/21 12:46:55;;;;;;;3.58;2.10;;;42.70;15.70;;;;;;5075654;28;20186;-70
2022/09/21 12:49:28;;;;;;;3.55;2.50;;;42.70;15.60;;;;;;5075245;28;20201;-70
2022/09/21 12:52:05;;;;;;;4.03;2.38;;;42.50;15.50;;;;;;5075186;28;20589;-70
2022/09/21 12:54:40;;;;;;;2.63;2.20;;;42.20;16.40;;;;;;5074584;28;20649;-70
2022/09/21 12:57:17;;;;;;;2.90;1.58;;;42.20;16.60;;;;;;5075458;28;20197;-70
2022/09/21 12:59:54;;;;;;;4.65;2.20;;;42.20;17.00;;;;;;5075161;28;20265;-70
2022/09/21 13:02:32;;;;;;;3.15;1.63;;;42.50;16.60;;;;;;5074795;28;20793;-70
2022/09/21 13:05:08;;;;;;;3.60;1.80;;;42.60;15.60;;;;;;5073963;28;20210;-70